Time;durP1;ratioP1;P1;durP2;ratioP2;P2;SDS_P1;SDS_P2;PMS_P1;PMS_P2;Temp;Humidity;BMP_temperature;BMP_pressure;BME280_temperature;BME280_humidity;BME280_pressure;Samples;Min_cycle;Max_cycle;Signal;HPM_P1;HPM_P2
2021/04/26 00:02:18;;;;;;;141.80;70.93;;;;;;;-0.55;65.85;99400.23;113635;1200;64371;-81
2021/04/26 00:04:44;;;;;;;143.33;70.20;;;;;;;-0.58;65.99;99403.76;113645;1200;64582;-81
2021/04/26 00:07:11;;;;;;;141.13;71.77;;;;;;;-0.58;66.23;99408.10;113602;1199;64369;-81
2021/04/26 00:09:38;;;;;;;136.43;68.07;;;;;;;-0.63;65.98;99405.58;113601;1200;64353;-80
2021/04/26 00:12:05;;;;;;;145.10;72.87;;;;;;;-0.65;66.27;99407.34;113565;1200;64398;-82
2021/04/26 00:14:31;;;;;;;156.50;80.50;;;;;;;-0.68;66.05;99405.64;113627;1200;64468;-82
2021/04/26 00:16:58;;;;;;;160.17;79.00;;;;;;;-0.70;66.03;99396.94;113627;1199;64436;-81
2021/04/26 00:19:25;;;;;;;151.93;77.97;;;;;;;-0.70;66.47;99396.08;113595;1199;64391;-82
2021/04/26 00:21:51;;;;;;;150.93;73.27;;;;;;;-0.71;66.63;99404.80;113607;1199;64471;-82
2021/04/26 00:24:18;;;;;;;168.43;81.40;;;;;;;-0.72;66.58;99403.94;113600;1200;64439;-82
2021/04/26 00:26:44;;;;;;;141.80;69.60;;;;;;;-0.72;66.82;99403.94;113593;1199;64500;-81
2021/04/26 00:29:11;;;;;;;169.77;81.97;;;;;;;-0.71;66.82;99399.56;113629;1199;64382;-82
2021/04/26 00:31:38;;;;;;;157.27;79.13;;;;;;;-0.74;66.88;99395.27;113601;1200;64455;-82
2021/04/26 00:34:05;;;;;;;168.57;78.40;;;;;;;-0.73;67.00;99396.13;113534;1200;64429;-82
2021/04/26 00:36:31;;;;;;;152.70;76.37;;;;;;;-0.70;67.09;99398.70;113653;1199;64439;-82
2021/04/26 00:38:58;;;;;;;155.03;76.40;;;;;;;-0.75;67.50;99400.52;113647;1200;64330;-81
2021/04/26 00:41:24;;;;;;;162.40;83.63;;;;;;;-0.81;67.42;99401.47;113583;1200;64461;-81
2021/04/26 00:43:51;;;;;;;170.43;84.10;;;;;;;-0.81;67.54;99413.70;113609;1199;64376;-81
2021/04/26 00:46:17;;;;;;;178.27;85.30;;;;;;;-0.76;67.60;99404.03;113593;1200;64560;-81
2021/04/26 00:48:44;;;;;;;169.60;85.50;;;;;;;-0.72;67.80;99408.31;113579;1199;64416;-82
2021/04/26 00:51:10;;;;;;;163.05;81.00;;;;;;;-0.76;67.76;99407.51;113578;1200;64311;-81
2021/04/26 00:53:37;;;;;;;158.85;82.50;;;;;;;-0.78;67.85;99404.05;113678;1199;64420;-81
2021/04/26 00:56:05;;;;;;;165.03;83.40;;;;;;;-0.80;67.90;99400.58;113627;1199;64420;-81
2021/04/26 00:58:32;;;;;;;171.90;83.23;;;;;;;-0.86;68.13;99403.29;113698;1200;64394;-84
2021/04/26 01:00:59;;;;;;;155.00;79.47;;;;;;;-0.92;68.17;99395.53;113697;1200;64848;-81
2021/04/26 01:03:26;;;;;;;156.30;79.50;;;;;;;-0.95;68.31;99392.94;113672;1200;64342;-80
2021/04/26 01:05:53;;;;;;;162.47;79.77;;;;;;;-1.00;68.63;99403.48;113621;1199;64397;-82
2021/04/26 01:08:20;;;;;;;162.53;79.43;;;;;;;-1.04;68.80;99399.17;113631;1200;64427;-81
2021/04/26 01:10:48;;;;;;;153.75;77.55;;;;;;;-1.04;68.69;99406.16;113602;1199;64415;-81
2021/04/26 01:13:30;;;;;;;156.83;77.77;;;;;;;-1.05;69.08;99393.95;113668;1199;64465;-81
2021/04/26 01:16:22;;;;;;;159.15;78.40;;;;;;;-1.03;68.79;99397.41;113611;1197;64439;-83
2021/04/26 01:19:17;;;;;;;155.90;78.47;;;;;;;-1.06;68.99;99397.45;113593;1200;64726;-83
2021/04/26 01:22:02;;;;;;;168.13;88.40;;;;;;;-1.10;69.50;99391.41;113620;1200;64407;-81
2021/04/26 01:24:56;;;;;;;172.83;90.27;;;;;;;-1.14;70.28;99385.34;113630;1199;64515;-81
2021/04/26 01:28:02;;;;;;;172.75;89.25;;;;;;;-1.11;69.62;99384.44;113588;1199;64497;-81
2021/04/26 01:30:35;;;;;;;166.10;87.90;;;;;;;-1.04;69.69;99380.86;113611;1200;64388;-82
2021/04/26 01:33:06;;;;;;;177.63;94.63;;;;;;;-1.01;69.82;99382.57;113598;1199;64391;-82
2021/04/26 01:35:34;;;;;;;171.97;88.53;;;;;;;-1.01;69.80;99378.20;113591;1199;64301;-82
2021/04/26 01:38:34;;;;;;;167.43;91.70;;;;;;;-1.00;69.89;99371.20;113596;1199;64481;-82
2021/04/26 01:41:02;;;;;;;169.50;85.47;;;;;;;-0.99;69.96;99378.19;113647;1200;64439;-81
2021/04/26 01:43:30;;;;;;;163.90;88.43;;;;;;;-0.96;70.01;99371.15;113691;1199;64477;-81
2021/04/26 01:46:05;;;;;;;163.45;86.90;;;;;;;-0.93;70.16;99373.72;113712;1200;64442;-82
2021/04/26 01:48:35;;;;;;;158.83;85.53;;;;;;;-0.94;70.50;99377.23;113683;1200;64352;-82
2021/04/26 01:51:04;;;;;;;163.37;80.87;;;;;;;-0.96;70.31;99375.52;113610;1200;64601;-82
2021/04/26 01:53:31;;;;;;;166.35;84.70;;;;;;;-0.99;70.18;99375.57;113661;1199;64477;-81
2021/04/26 01:56:02;;;;;;;165.65;87.30;;;;;;;-1.00;70.34;99377.33;113682;1200;64464;-81
2021/04/26 01:58:30;;;;;;;168.40;87.33;;;;;;;-1.02;70.68;99376.48;113675;1200;64403;-82
2021/04/26 02:00:58;;;;;;;162.70;89.20;;;;;;;-1.05;70.64;99367.79;113676;1200;64496;-82
2021/04/26 02:03:27;;;;;;;168.73;85.03;;;;;;;-1.04;70.58;99370.40;113629;1200;64333;-82
2021/04/26 02:05:55;;;;;;;166.30;89.00;;;;;;;-1.03;70.61;99376.48;113715;1199;64503;-81
2021/04/26 02:08:24;;;;;;;164.07;86.20;;;;;;;-1.00;71.06;99379.95;113854;1200;64384;-81
2021/04/26 02:10:51;;;;;;;186.93;87.60;;;;;;;-0.99;71.22;99378.19;113937;1200;64758;-82
2021/04/26 02:13:20;;;;;;;183.17;85.73;;;;;;;-0.96;71.05;99375.52;113731;1199;64401;-81
2021/04/26 02:15:53;;;;;;;203.53;90.03;;;;;;;-0.93;71.01;99378.09;114113;1200;64378;-81
2021/04/26 02:18:20;;;;;;;140.70;66.90;;;;;;;-0.91;71.11;99371.95;113932;1200;64327;-81
2021/04/26 02:20:47;;;;;;;118.30;61.20;;;;;;;-0.86;71.09;99373.65;113662;1199;64480;-82
2021/04/26 02:23:14;;;;;;;110.27;59.10;;;;;;;-0.84;71.04;99369.23;113685;1200;64439;-82
2021/04/26 02:25:41;;;;;;;99.53;53.33;;;;;;;-0.85;71.03;99364.90;113686;1200;64372;-80
2021/04/26 02:28:08;;;;;;;100.10;53.30;;;;;;;-0.85;71.03;99365.76;113600;1200;64505;-80
2021/04/26 02:30:35;;;;;;;93.00;48.95;;;;;;;-0.87;71.13;99361.44;113631;1199;64483;-82
2021/04/26 02:33:16;;;;;;;89.73;47.70;;;;;;;-0.90;71.00;99365.81;113595;1199;64446;-82
2021/04/26 02:36:04;;;;;;;86.07;45.47;;;;;;;-0.89;71.07;99361.48;113643;1199;64468;-82
2021/04/26 02:38:42;;;;;;;77.15;40.25;;;;;;;-0.89;71.33;99370.19;113644;1200;64439;-81
2021/04/26 02:41:19;;;;;;;80.80;40.83;;;;;;;-0.87;71.44;99362.30;113611;1200;64455;-83
2021/04/26 02:43:52;;;;;;;74.53;36.33;;;;;;;-0.83;71.43;99355.28;113629;1200;64413;-81
2021/04/26 02:46:23;;;;;;;64.57;36.30;;;;;;;-0.81;71.29;99356.98;113678;1199;64378;-81
2021/04/26 02:48:50;;;;;;;62.45;35.25;;;;;;;-0.80;71.29;99358.70;113711;1199;64426;-81
2021/04/26 02:51:20;;;;;;;73.40;38.43;;;;;;;-0.78;71.18;99354.32;113695;1199;64414;-81
2021/04/26 02:53:49;;;;;;;62.07;38.63;;;;;;;-0.74;71.34;99355.13;113800;1198;64378;-83
2021/04/26 02:56:18;;;;;;;70.68;41.40;;;;;;;-0.75;71.15;99356.03;113627;1200;64458;-81
2021/04/26 02:58:47;;;;;;;69.93;41.37;;;;;;;-0.76;71.17;99357.79;113836;1200;64356;-82
2021/04/26 03:01:14;;;;;;;64.43;37.20;;;;;;;-0.74;71.42;99357.74;113819;1199;64414;-83
2021/04/26 03:03:42;;;;;;;66.23;34.50;;;;;;;-0.78;71.12;99366.55;113788;1200;64317;-82
2021/04/26 03:06:11;;;;;;;60.17;35.63;;;;;;;-0.84;71.25;99354.42;113802;1199;64352;-81
2021/04/26 03:08:39;;;;;;;60.40;35.10;;;;;;;-0.86;71.27;99363.19;113718;1199;64409;-81
2021/04/26 03:11:07;;;;;;;65.00;33.85;;;;;;;-0.90;71.49;99359.73;113655;1199;64391;-81
2021/04/26 03:13:36;;;;;;;54.40;33.05;;;;;;;-0.91;71.77;99360.63;113740;1199;64423;-81
2021/04/26 03:16:04;;;;;;;61.23;33.33;;;;;;;-0.89;71.73;99366.71;113823;1199;64381;-82
2021/04/26 03:18:32;;;;;;;53.25;33.00;;;;;;;-0.88;71.67;99363.20;113642;1199;64529;-80
2021/04/26 03:21:01;;;;;;;61.27;35.93;;;;;;;-0.85;72.15;99362.28;113614;1200;64400;-80
2021/04/26 03:23:29;;;;;;;56.97;33.97;;;;;;;-0.82;71.84;99362.23;113610;1199;64461;-81
2021/04/26 03:25:58;;;;;;;57.65;33.75;;;;;;;-0.82;71.62;99367.47;113614;1200;64362;-81
2021/04/26 03:28:27;;;;;;;61.83;33.27;;;;;;;-0.73;71.64;99362.11;113655;1200;64690;-82
2021/04/26 03:30:58;;;;;;;54.50;31.63;;;;;;;-0.67;71.65;99372.47;113635;1200;64317;-82
2021/04/26 03:33:25;;;;;;;49.07;28.73;;;;;;;-0.60;71.59;99362.78;113639;1200;64793;-82
2021/04/26 03:35:56;;;;;;;52.93;30.77;;;;;;;-0.54;71.57;99376.63;113659;1199;64365;-81
2021/04/26 03:38:24;;;;;;;59.20;31.80;;;;;;;-0.52;71.41;99367.00;113629;1199;64371;-81
2021/04/26 03:40:51;;;;;;;67.07;37.17;;;;;;;-0.46;71.42;99376.50;113690;1199;64803;-82
2021/04/26 03:43:18;;;;;;;64.27;35.17;;;;;;;-0.38;71.54;99379.86;113656;1200;64451;-81
2021/04/26 03:45:45;;;;;;;60.33;35.27;;;;;;;-0.33;71.38;99387.65;113701;1199;64378;-81
2021/04/26 03:48:12;;;;;;;61.40;36.87;;;;;;;-0.32;71.35;99382.37;113683;1200;64464;-81
2021/04/26 03:50:39;;;;;;;59.57;34.00;;;;;;;-0.30;71.46;99384.97;113636;1200;64410;-82
2021/04/26 03:53:05;;;;;;;58.00;32.70;;;;;;;-0.27;71.33;99380.54;113690;1199;64403;-81
2021/04/26 03:55:33;;;;;;;52.35;31.15;;;;;;;-0.23;71.15;99387.47;113614;1199;64742;-81
2021/04/26 03:57:59;;;;;;;50.07;30.00;;;;;;;-0.18;71.05;99387.39;113644;1199;64429;-81
2021/04/26 04:00:26;;;;;;;50.20;29.80;;;;;;;0.09;71.02;99391.28;113587;1199;64385;-81
2021/04/26 04:02:52;;;;;;;52.07;31.23;;;;;;;0.80;70.14;99380.27;113608;1199;64484;-81
2021/04/26 04:05:20;;;;;;;54.30;32.30;;;;;;;1.46;69.43;99386.66;113571;1200;64371;-81
2021/04/26 04:07:47;;;;;;;52.60;31.97;;;;;;;2.22;68.14;99384.78;113592;1200;64496;-81
2021/04/26 04:10:15;;;;;;;54.90;35.25;;;;;;;2.86;67.18;99389.09;113611;1200;64528;-81
2021/04/26 04:12:42;;;;;;;61.43;36.33;;;;;;;3.34;66.06;99385.02;113621;1200;64349;-81
2021/04/26 04:15:10;;;;;;;57.60;33.65;;;;;;;3.47;65.71;99390.77;113590;1200;64356;-81
2021/04/26 04:17:39;;;;;;;63.40;34.17;;;;;;;2.95;65.69;99394.98;113752;1199;64388;-81
2021/04/26 04:20:12;;;;;;;64.63;37.27;;;;;;;2.59;66.27;99403.05;113678;1199;64458;-81
2021/04/26 04:22:39;;;;;;;69.55;38.55;;;;;;;2.49;65.90;99398.95;113712;1199;64564;-81
2021/04/26 04:25:08;;;;;;;69.70;37.53;;;;;;;2.49;66.02;99402.43;113604;1200;64375;-81
2021/04/26 04:27:34;;;;;;;64.60;38.40;;;;;;;2.76;65.53;99394.66;113744;1199;64334;-81
2021/04/26 04:30:03;;;;;;;65.80;36.17;;;;;;;2.41;65.79;99407.04;113719;1199;64462;-80
2021/04/26 04:32:31;;;;;;;56.27;33.07;;;;;;;2.10;65.98;99397.33;113647;1200;64401;-82
2021/04/26 04:34:58;;;;;;;46.63;28.17;;;;;;;1.95;66.40;99409.13;113668;1199;64388;-81
2021/04/26 04:37:25;;;;;;;45.63;25.73;;;;;;;1.87;66.29;99403.20;113721;1199;64442;-81
2021/04/26 04:39:51;;;;;;;42.40;25.50;;;;;;;1.82;66.60;99410.33;113613;1200;64425;-81
2021/04/26 04:42:18;;;;;;;43.57;26.77;;;;;;;2.34;65.66;99410.73;113623;1200;64423;-81
2021/04/26 04:44:45;;;;;;;47.10;26.17;;;;;;;2.17;65.76;99405.94;113715;1199;64532;-81
2021/04/26 04:47:11;;;;;;;45.90;25.55;;;;;;;2.07;66.18;99405.30;113553;1199;64441;-81
2021/04/26 04:49:38;;;;;;;41.43;26.20;;;;;;;2.96;65.24;99409.89;113577;1199;64404;-81
2021/04/26 04:52:05;;;;;;;41.47;25.17;;;;;;;4.07;63.67;99400.21;113715;1199;64356;-85
2021/04/26 04:54:32;;;;;;;46.47;25.83;;;;;;;4.93;62.28;99396.30;113716;1199;64413;-81
2021/04/26 04:56:59;;;;;;;38.40;23.83;;;;;;;5.70;61.37;99402.95;113714;1199;64394;-82
2021/04/26 04:59:25;;;;;;;34.70;23.10;;;;;;;6.14;60.72;99394.14;113704;1199;64828;-82
2021/04/26 05:01:52;;;;;;;35.80;23.83;;;;;;;6.19;60.63;99394.81;113826;1200;64382;-83
2021/04/26 05:04:19;;;;;;;31.30;19.95;;;;;;;5.64;60.94;99389.98;113732;1199;64394;-81
2021/04/26 05:06:46;;;;;;;31.53;18.77;;;;;;;5.16;61.35;99392.77;113692;1199;64327;-83
2021/04/26 05:09:12;;;;;;;29.77;20.93;;;;;;;5.02;61.64;99394.16;113631;1200;64445;-81
2021/04/26 05:11:39;;;;;;;27.63;18.80;;;;;;;5.91;60.26;99387.13;113586;1200;64333;-81
2021/04/26 05:14:06;;;;;;;28.83;19.27;;;;;;;6.56;59.30;99393.22;113557;1199;64380;-81
2021/04/26 05:16:32;;;;;;;32.10;21.35;;;;;;;6.93;59.31;99388.91;113615;1200;64445;-80
2021/04/26 05:19:00;;;;;;;32.00;19.53;;;;;;;7.53;58.71;99380.78;113634;1199;64519;-81
2021/04/26 05:21:27;;;;;;;30.77;19.73;;;;;;;8.08;57.65;99370.97;113642;1200;64493;-81
2021/04/26 05:23:55;;;;;;;26.67;18.13;;;;;;;8.51;56.54;99359.97;113697;1199;64557;-81
2021/04/26 05:26:25;;;;;;;27.10;17.70;;;;;;;8.79;55.78;99357.56;113761;1199;64347;-83
2021/04/26 05:28:52;;;;;;;23.55;15.70;;;;;;;9.15;55.04;99359.13;113764;1199;64381;-81
2021/04/26 05:31:19;;;;;;;25.25;15.90;;;;;;;9.37;54.30;99357.94;113715;1200;64384;-82
2021/04/26 05:33:47;;;;;;;25.33;16.83;;;;;;;9.48;53.86;99357.33;113628;1200;64509;-82
2021/04/26 05:36:14;;;;;;;28.03;16.67;;;;;;;9.62;53.32;99350.28;113632;1200;64462;-81
2021/04/26 05:38:40;;;;;;;28.05;16.20;;;;;;;9.64;52.71;99352.87;113615;1199;64746;-81
2021/04/26 05:41:07;;;;;;;26.03;16.77;;;;;;;9.74;52.79;99350.52;113621;1199;64414;-81
2021/04/26 05:43:33;;;;;;;23.77;15.90;;;;;;;9.82;52.01;99351.81;113605;1199;64395;-83
2021/04/26 05:46:01;;;;;;;21.93;15.20;;;;;;;9.83;50.03;99353.51;113618;1200;64388;-82
2021/04/26 05:48:27;;;;;;;23.13;15.97;;;;;;;9.60;50.52;99362.81;113634;1199;64480;-82
2021/04/26 05:50:54;;;;;;;32.53;17.03;;;;;;;9.76;51.53;99349.48;113587;1200;64458;-82
2021/04/26 05:53:22;;;;;;;20.23;15.47;;;;;;;9.89;50.57;99357.61;113634;1200;64387;-82
2021/04/26 05:55:49;;;;;;;22.60;14.80;;;;;;;9.74;48.88;99358.50;113697;1199;64608;-82
2021/04/26 05:58:16;;;;;;;20.90;14.80;;;;;;;9.48;49.13;99363.53;113632;1200;64422;-81
2021/04/26 06:00:43;;;;;;;24.20;15.80;;;;;;;9.52;49.86;99358.88;113622;1200;64503;-81
2021/04/26 06:03:09;;;;;;;24.83;16.30;;;;;;;9.73;49.77;99362.12;113642;1199;64471;-81
2021/04/26 06:05:36;;;;;;;22.37;15.33;;;;;;;9.84;49.19;99357.02;113554;1200;64455;-81
2021/04/26 06:08:03;;;;;;;21.07;15.10;;;;;;;9.84;48.03;99362.34;113635;1199;64375;-81
2021/04/26 06:10:31;;;;;;;22.50;15.20;;;;;;;9.85;48.10;99358.76;113591;1200;64381;-81
2021/04/26 06:12:57;;;;;;;24.83;15.90;;;;;;;9.34;48.52;99360.77;113648;1200;64442;-82
2021/04/26 06:15:25;;;;;;;21.00;14.40;;;;;;;9.46;47.70;99357.43;113653;1200;64384;-82
2021/04/26 06:17:52;;;;;;;23.53;15.27;;;;;;;9.45;47.73;99355.70;113678;1199;64764;-82
2021/04/26 06:20:18;;;;;;;25.73;15.13;;;;;;;9.50;46.70;99369.59;113587;1200;64383;-82
2021/04/26 06:22:45;;;;;;;20.90;15.10;;;;;;;9.52;46.88;99362.39;113627;1200;64423;-81
2021/04/26 06:25:12;;;;;;;22.73;14.90;;;;;;;9.51;46.60;99360.69;113604;1200;64419;-81
2021/04/26 06:27:39;;;;;;;17.97;12.40;;;;;;;9.63;46.47;99353.80;113665;1199;64353;-81
2021/04/26 06:30:07;;;;;;;19.55;13.15;;;;;;;9.71;46.37;99356.88;113616;1200;64365;-82
2021/04/26 06:32:34;;;;;;;20.53;13.50;;;;;;;9.74;44.71;99363.83;113556;1200;64839;-81
2021/04/26 06:35:01;;;;;;;22.23;14.60;;;;;;;9.44;45.21;99356.65;113678;1199;64436;-82
2021/04/26 06:37:28;;;;;;;18.73;14.37;;;;;;;9.57;46.33;99346.17;113666;1200;64337;-82
2021/04/26 06:39:56;;;;;;;20.60;14.10;;;;;;;9.74;45.86;99348.73;113635;1200;64374;-82
2021/04/26 06:42:23;;;;;;;18.80;12.53;;;;;;;9.65;45.20;99347.44;113661;1200;64452;-82
2021/04/26 06:44:50;;;;;;;18.23;12.50;;;;;;;9.67;45.38;99342.89;113566;1200;64330;-80
2021/04/26 06:47:17;;;;;;;20.20;13.05;;;;;;;9.80;45.40;99336.88;113661;1200;64445;-81
2021/04/26 06:49:43;;;;;;;20.77;13.00;;;;;;;9.68;44.81;99336.61;113655;1200;64490;-80
2021/04/26 06:52:10;;;;;;;15.77;10.37;;;;;;;9.62;44.55;99342.30;113637;1199;64400;-81
2021/04/26 06:54:37;;;;;;;16.83;10.83;;;;;;;9.40;44.47;99342.67;113634;1199;64339;-81
2021/04/26 06:57:04;;;;;;;17.60;9.73;;;;;;;9.10;44.59;99337.25;113622;1199;64461;-80
2021/04/26 06:59:31;;;;;;;14.30;9.50;;;;;;;8.77;44.27;99332.00;113598;1200;64499;-82
2021/04/26 07:01:57;;;;;;;17.93;10.00;;;;;;;8.49;43.47;99348.55;113600;1200;64435;-81
2021/04/26 07:04:24;;;;;;;14.65;9.70;;;;;;;8.25;44.23;99342.70;113658;1199;64327;-81
2021/04/26 07:06:52;;;;;;;16.65;9.05;;;;;;;7.97;44.58;99348.55;113706;1199;64308;-82
2021/04/26 07:09:18;;;;;;;18.20;9.30;;;;;;;7.94;44.67;99343.41;113627;1200;64458;-81
2021/04/26 07:11:47;;;;;;;18.10;9.75;;;;;;;7.95;45.17;99343.30;113635;1200;64470;-81
2021/04/26 07:14:14;;;;;;;14.55;8.65;;;;;;;8.01;44.19;99347.47;113586;1200;64464;-81
2021/04/26 07:16:41;;;;;;;12.67;7.97;;;;;;;8.05;44.02;99343.70;113605;1199;64420;-81
2021/04/26 07:19:08;;;;;;;15.37;7.97;;;;;;;7.98;43.55;99348.48;113680;1200;64446;-81
2021/04/26 07:21:35;;;;;;;12.57;8.70;;;;;;;8.00;44.03;99348.39;113640;1199;64458;-81
2021/04/26 07:24:01;;;;;;;13.60;7.53;;;;;;;8.08;42.87;99348.86;113692;1200;64336;-82
2021/04/26 07:26:28;;;;;;;10.40;7.37;;;;;;;8.05;40.82;99338.40;113599;1199;64465;-83
2021/04/26 07:28:56;;;;;;;10.30;6.20;;;;;;;7.97;41.79;99343.24;113618;1200;64410;-81
2021/04/26 07:31:23;;;;;;;10.00;7.13;;;;;;;7.90;42.81;99332.09;113609;1200;64387;-82
2021/04/26 07:33:50;;;;;;;13.15;7.50;;;;;;;7.95;43.35;99334.49;113699;1199;64359;-81
2021/04/26 07:36:17;;;;;;;12.20;6.83;;;;;;;7.95;42.89;99342.45;113709;1199;64494;-83
2021/04/26 07:38:44;;;;;;;10.27;6.37;;;;;;;8.08;42.76;99330.28;113741;1199;64378;-82
2021/04/26 07:41:10;;;;;;;10.00;5.10;;;;;;;8.29;41.64;99328.30;113804;1200;64362;-83
2021/04/26 07:43:39;;;;;;;17.10;4.10;;;;;;;8.32;39.69;99333.45;113687;1200;64336;-81
2021/04/26 07:46:06;;;;;;;5.43;3.27;;;;;;;8.30;39.55;99322.08;113732;1200;64375;-83
2021/04/26 07:48:33;;;;;;;6.13;3.37;;;;;;;8.35;38.92;99328.86;113708;1199;64384;-83
2021/04/26 07:50:59;;;;;;;5.30;3.33;;;;;;;8.46;38.45;99330.13;113709;1199;64395;-82
2021/04/26 07:53:26;;;;;;;5.85;3.20;;;;;;;8.56;39.05;99329.55;113734;1200;64710;-82
2021/04/26 07:55:52;;;;;;;6.30;3.93;;;;;;;8.52;39.13;99329.80;113680;1199;64369;-83
2021/04/26 07:58:19;;;;;;;5.55;3.00;;;;;;;8.36;38.44;99325.25;113644;1199;64366;-82
2021/04/26 08:00:46;;;;;;;3.80;2.87;;;;;;;8.30;38.40;99327.39;113606;1199;64500;-82
2021/04/26 08:03:15;;;;;;;6.00;3.03;;;;;;;8.47;38.63;99321.20;113665;1200;64509;-82
2021/04/26 08:05:43;;;;;;;4.70;3.00;;;;;;;8.65;38.30;99324.69;113906;1200;64404;-82
2021/04/26 08:08:10;;;;;;;5.60;3.47;;;;;;;8.79;37.87;99327.44;113632;1199;64385;-82
2021/04/26 08:10:37;;;;;;;5.30;3.03;;;;;;;8.97;38.55;99320.27;113602;1200;64378;-81
2021/04/26 08:13:04;;;;;;;6.50;3.17;;;;;;;9.16;36.67;99325.42;113615;1199;64503;-82
2021/04/26 08:15:31;;;;;;;3.90;2.57;;;;;;;9.13;36.90;99314.95;113626;1200;64487;-82
2021/04/26 08:17:58;;;;;;;4.70;2.90;;;;;;;9.06;36.75;99321.55;113590;1200;64716;-82
2021/04/26 08:20:25;;;;;;;6.73;3.80;;;;;;;9.27;37.57;99325.70;113622;1199;64414;-82
2021/04/26 08:22:51;;;;;;;6.30;3.83;;;;;;;9.53;36.28;99318.02;113667;1199;64426;-81
2021/04/26 08:25:18;;;;;;;5.17;3.60;;;;;;;9.60;37.62;99317.58;113598;1200;64400;-82
2021/04/26 08:27:45;;;;;;;6.47;4.07;;;;;;;9.70;37.15;99317.05;113633;1199;64304;-82
2021/04/26 08:30:12;;;;;;;7.65;3.50;;;;;;;9.60;36.43;99324.70;113635;1199;64479;-81
2021/04/26 08:32:40;;;;;;;5.40;3.40;;;;;;;9.43;37.06;99323.03;113635;1200;64375;-81
2021/04/26 08:35:08;;;;;;;3.50;2.60;;;;;;;9.23;35.35;99330.31;113688;1199;64326;-82
2021/04/26 08:37:34;;;;;;;3.77;2.27;;;;;;;9.08;36.00;99319.67;113649;1199;64394;-81
2021/04/26 08:40:01;;;;;;;3.17;2.77;;;;;;;9.04;36.25;99318.14;113673;1199;64474;-81
2021/04/26 08:42:27;;;;;;;4.37;2.10;;;;;;;9.33;35.00;99322.68;113658;1199;64479;-81
2021/04/26 08:44:54;;;;;;;3.35;1.40;;;;;;;9.36;34.23;99322.50;113623;1200;64372;-81
2021/04/26 08:47:23;;;;;;;2.77;1.70;;;;;;;9.15;33.34;99321.05;113618;1199;64516;-81
2021/04/26 08:49:55;;;;;;;4.17;2.27;;;;;;;9.03;33.66;99319.06;113585;1200;64369;-82
2021/04/26 08:52:22;;;;;;;3.73;2.03;;;;;;;8.99;34.46;99319.24;113639;1200;64542;-80
2021/04/26 08:54:49;;;;;;;4.67;2.17;;;;;;;9.13;35.73;99314.95;113604;1199;64532;-81
2021/04/26 08:57:15;;;;;;;7.45;1.95;;;;;;;9.23;34.75;99322.33;113590;1199;64330;-80
2021/04/26 08:59:43;;;;;;;2.67;1.20;;;;;;;9.04;34.01;99318.14;113644;1199;64359;-81
2021/04/26 09:02:10;;;;;;;2.70;1.60;;;;;;;8.94;33.77;99323.95;113534;1199;64509;-82
2021/04/26 09:04:48;;;;;;;3.60;1.50;;;;;;;9.07;34.32;99316.16;113702;1199;64275;-80
2021/04/26 09:07:14;;;;;;;3.27;1.60;;;;;;;9.10;33.42;99320.45;113697;1200;64406;-80
2021/04/26 09:10:00;;;;;;;3.97;2.27;;;;;;;8.97;33.78;99325.58;113584;1200;64352;-81
2021/04/26 09:12:31;;;;;;;5.37;2.03;;;;;;;8.68;33.46;99324.52;113619;1200;64795;-81
2021/04/26 09:15:00;;;;;;;3.50;2.03;;;;;;;8.44;34.35;99319.57;113578;1200;64436;-81
2021/04/26 09:17:48;;;;;;;2.80;1.95;;;;;;;8.54;35.19;99315.48;113639;1200;64375;-81
2021/04/26 09:20:14;;;;;;;3.20;2.20;;;;;;;9.03;36.23;99309.31;113581;1199;64308;-82
2021/04/26 09:22:55;;;;;;;2.30;2.10;;;;;;;9.50;35.87;99302.23;113646;1199;64311;-82
2021/04/26 09:25:37;;;;;;;3.27;2.30;;;;;;;9.66;33.34;99303.05;113633;1200;64355;-81
2021/04/26 09:28:18;;;;;;;3.47;2.10;;;;;;;9.57;34.07;99304.45;113641;1199;64349;-81
2021/04/26 09:30:55;;;;;;;4.45;2.65;;;;;;;9.86;34.62;99294.77;113658;1200;64394;-82
2021/04/26 09:33:29;;;;;;;2.85;2.00;;;;;;;10.08;33.04;99289.03;113599;1200;64301;-81
2021/04/26 09:36:13;;;;;;;3.37;2.23;;;;;;;10.43;34.13;99291.38;113640;1199;64317;-81
2021/04/26 09:38:44;;;;;;;5.00;1.90;;;;;;;10.86;33.88;99288.69;113644;1199;64371;-82
2021/04/26 09:41:11;;;;;;;3.45;2.10;;;;;;;11.03;32.63;99282.27;113613;1200;64455;-81
2021/04/26 09:43:39;;;;;;;3.33;2.10;;;;;;;10.79;33.24;99286.50;113652;1200;64506;-80
2021/04/26 09:46:07;;;;;;;4.10;1.87;;;;;;;10.47;32.03;99295.55;113696;1200;64461;-81
2021/04/26 09:48:33;;;;;;;3.67;2.20;;;;;;;10.04;32.67;99290.16;113634;1200;64378;-82
2021/04/26 09:51:06;;;;;;;3.07;1.80;;;;;;;9.82;32.82;99287.04;113584;1199;64414;-81
2021/04/26 09:53:39;;;;;;;5.67;2.20;;;;;;;9.80;33.29;99291.63;113602;1199;64409;-82
2021/04/26 09:56:46;;;;;;;6.40;2.47;;;;;;;9.67;33.05;99296.80;113710;1200;64323;-81
2021/04/26 09:59:15;;;;;;;7.90;2.80;;;;;;;9.35;33.48;99282.71;113617;1199;64301;-80
2021/04/26 10:01:43;;;;;;;4.63;2.60;;;;;;;9.39;33.63;99285.08;113636;1200;64365;-82
2021/04/26 10:04:13;;;;;;;4.25;2.45;;;;;;;9.64;33.79;99289.00;113619;1200;64371;-81
2021/04/26 10:06:40;;;;;;;3.10;2.10;;;;;;;10.15;34.52;99284.17;113663;1200;64336;-80
2021/04/26 10:09:08;;;;;;;5.17;2.30;;;;;;;10.71;34.72;99277.17;113620;1199;64372;-80
2021/04/26 10:11:36;;;;;;;3.90;1.80;;;;;;;11.04;34.68;99277.81;113673;1199;64384;-82
2021/04/26 10:14:08;;;;;;;6.23;2.50;;;;;;;10.97;32.60;99272.85;113729;1200;64304;-82
2021/04/26 10:16:43;;;;;;;5.67;2.33;;;;;;;10.44;31.78;99285.09;113639;1200;64307;-81
2021/04/26 10:19:14;;;;;;;5.00;2.43;;;;;;;9.99;32.02;99278.92;113654;1199;64386;-81
2021/04/26 10:21:51;;;;;;;4.70;2.10;;;;;;;9.66;32.64;99284.42;113641;1200;64455;-81
2021/04/26 10:24:21;;;;;;;2.57;2.10;;;;;;;9.58;32.41;99276.03;113661;1200;64350;-82
2021/04/26 10:26:51;;;;;;;2.90;2.25;;;;;;;9.58;33.35;99279.55;113743;1200;64349;-83
2021/04/26 10:29:27;;;;;;;3.65;2.15;;;;;;;9.81;33.50;99277.35;113763;1199;64410;-82
2021/04/26 10:32:15;;;;;;;4.05;2.00;;;;;;;9.80;32.70;99273.84;113739;1200;64515;-83
2021/04/26 10:34:41;;;;;;;3.83;2.10;;;;;;;10.05;33.16;99273.21;113826;1199;64372;-83
2021/04/26 10:37:14;;;;;;;3.83;2.17;;;;;;;10.40;32.89;99259.61;113785;1200;64375;-80
2021/04/26 10:40:05;;;;;;;4.50;2.10;;;;;;;10.67;32.93;99254.34;113739;1200;64313;-81
2021/04/26 10:42:40;;;;;;;4.77;1.90;;;;;;;10.79;32.02;99252.70;113658;1199;64375;-84
2021/04/26 10:45:13;;;;;;;4.03;2.07;;;;;;;11.02;32.98;99256.56;113630;1199;64416;-81
2021/04/26 10:47:44;;;;;;;5.17;2.00;;;;;;;11.05;32.89;99248.36;113672;1199;64487;-81
2021/04/26 10:50:12;;;;;;;2.25;1.85;;;;;;;11.18;33.00;99243.94;113640;1199;64457;-83
2021/04/26 10:52:53;;;;;;;2.60;1.90;;;;;;;11.21;31.86;99242.88;113706;1200;64398;-81
2021/04/26 10:55:22;;;;;;;2.60;1.90;;;;;;;11.05;30.75;99239.51;113615;1200;64391;-81
2021/04/26 10:57:56;;;;;;;3.90;1.90;;;;;;;10.77;31.58;99238.63;113648;1200;64502;-82
2021/04/26 11:00:26;;;;;;;2.83;1.57;;;;;;;10.59;31.36;99235.32;113747;1199;64352;-81
2021/04/26 11:03:05;;;;;;;2.53;1.80;;;;;;;10.48;32.02;99241.33;113694;1200;64454;-82
2021/04/26 11:05:32;;;;;;;3.27;1.53;;;;;;;10.60;32.36;99234.36;113581;1200;64382;-81
2021/04/26 11:08:04;;;;;;;3.90;1.70;;;;;;;10.85;31.28;99233.66;113625;1199;64471;-82
2021/04/26 11:10:45;;;;;;;1.87;1.63;;;;;;;11.03;31.09;99228.08;113658;1200;64551;-82
2021/04/26 11:13:30;;;;;;;3.93;2.17;;;;;;;11.09;31.56;99235.70;113646;1200;64390;-82
2021/04/26 11:16:06;;;;;;;8.03;3.10;;;;;;;11.34;31.24;99230.44;113705;1200;64413;-82
2021/04/26 11:18:35;;;;;;;4.00;2.75;;;;;;;11.23;31.31;99222.30;113612;1200;64369;-81
2021/04/26 11:21:03;;;;;;;3.93;2.30;;;;;;;11.37;32.26;99219.59;113715;1200;64308;-80
2021/04/26 11:23:46;;;;;;;5.27;2.20;;;;;;;11.40;31.72;99222.05;113637;1199;64532;-80
2021/04/26 11:26:22;;;;;;;5.30;2.30;;;;;;;11.31;32.49;99216.45;113598;1200;64426;-83
2021/04/26 11:29:11;;;;;;;2.40;1.90;;;;;;;11.28;32.31;99216.66;113644;1199;64407;-83